Mallesons Stephen Jaques (HK) 萬盛國際律師事務所

start date:
end date:
include new appointments after start date

Role: Lawyer

This is a continuing role. Total returns are measured from the latest of the start date, the appointment date and 3-Jan-1994 until the earliest of the end date, the resignation/removal date and the last trading date. CAGR is the annualised return and is not shown for periods under 180 days. Relative returns are to the Tracker Fund of HK (2800), starting from the latest of 12-Nov-1999, the appointment date and the chosen start date.

Some data are hidden to fit your display. Rotate?

Client Added Removed Total
return
CAGR
total
return
CAGR
relative
return
1 Gemdale Properties and Investment Corporation Limited 1996-07-29 1998-03-20 392.56% 164.38%
2 Coolpad Group Limited 2004-11-30 2007-04-11 155.45% 49.42% 22.88%
3 FDG Kinetic Limited 2005-01-20 2009-04-27 168.01% 26.00% 19.29%
4 PEOPLE'S FOOD HOLDINGS LIMITED 2005-02-28 2005-08-04 -27.95%
5 K. WAH INTERNATIONAL HOLDINGS LIMITED 2005-03-03 2007-03-29 17.05% 7.90% -12.32%
6 TONG REN TANG TECHNOLOGIES CO. LTD. 2005-03-09 2008-03-18 -37.82% -14.53% -28.20%
7 SHANDONG MOLONG PETROLEUM MACHINERY COMPANY LIMITED 2005-03-16 2006-03-19 94.48% 94.21% 64.59%
8 CAPINFO COMPANY LIMITED 2005-03-21 2008-03-25 84.85% 22.63% 1.20%
9 DreamEast Group Limited 2005-03-22 2012-03-20 225.99% 18.40% 8.21%
10 GET Holdings Limited 2005-03-22 2006-10-03 -42.11% -64.07% -71.87%
11 NANJING SAMPLE TECHNOLOGY COMPANY LIMITED 2005-03-23 2007-04-24 180.11% 66.61% 34.10%
12 KINGDEE INTERNATIONAL SOFTWARE GROUP COMPANY LIMITED 2005-03-29 2008-03-31 308.57% 59.71% 30.02%
13 Kingboard Holdings Limited 2005-03-30 2012-03-29 29.10% 3.72% -5.36%
14 TIAN AN CHINA INVESTMENTS COMPANY LIMITED 2005-03-30 2013-03-22 182.35% 13.89% 3.77%
15 BAOYE GROUP COMPANY LIMITED 2005-04-01 2012-03-19 10.80% 1.48% -7.75%
16 ROYALE FURNITURE HOLDINGS LIMITED 2005-04-08 2007-04-16 -78.56% -53.33% -63.26%
17 SUN HUNG KAI & CO. LIMITED 2005-04-12 2013-03-21 374.93% 21.68% 10.95%
18 ALLIED GROUP LIMITED (HK) 2005-04-14 2012-03-29 85.98% 9.33% 0.02%
19 ALLIED PROPERTIES (H.K.) LIMITED 2005-04-14 2012-03-29 119.22% 11.94% 2.42%
20 COSLIGHT TECHNOLOGY INTERNATIONAL GROUP LIMITED 2005-04-21 2007-04-23 234.00% 82.53% 43.78%
21 HAIER ELECTRONICS GROUP CO., LTD. 2005-04-22 2007-04-23 33.88% 15.69% -8.41%
22 GT GROUP HOLDINGS LIMITED 2005-04-25 2010-04-19 -46.48% -11.79% -21.76%
23 AMS PUBLIC TRANSPORT HOLDINGS LIMITED 2005-06-17 2006-07-12 8.02% 7.50% -11.09%
24 Rare Earth Magnesium Technology Group Holdings Limited 2005-07-14 2011-06-28 -44.94% -9.53% -18.31%
25 SUGA INTERNATIONAL HOLDINGS LIMITED 2005-07-25 556.82% 14.15% 6.05%
26 China Haisheng Juice Holdings Co., Ltd. 2005-10-25 2006-04-25 51.56%
27 CMIC Ocean En-Tech Holding Co., Ltd. 2005-11-21 2006-03-27 -14.77%
28 Camsing International Holding Limited 2005-11-30 2006-10-18 -22.35% -25.92% -42.37%
29 Xiwang Property Holdings Company Limited 2005-11-30 2007-03-30 87.69% 62.11% 27.19%
30 SSY Group Limited (KY) 2005-12-02 2007-04-26 68.29% 47.17% 13.83%
31 Lingbao Gold Group Company Ltd. 2005-12-30 2007-04-24 41.69% 31.33% 3.12%
32 Wuling Motors Holdings Limited 2006-04-25 2009-04-22 79.17% 21.52% 22.01%
33 WANG ON GROUP LIMITED 2006-07-14 2009-07-22 -80.43% -41.71% -46.81%
34 ALCO HOLDINGS LIMITED (BM) 2006-07-18 2013-06-26 -19.36% -3.05% -9.25%
35 Kingboard Laminates Holdings Limited 2006-11-24 2012-03-29 -47.82% -11.53% -15.53%
36 ASIA FINANCIAL HOLDINGS LIMITED 2007-03-27 2011-03-02 23.76% 5.57% -1.37%
37 XINHUA WINSHARE PUBLISHING AND MEDIA CO., LTD. 2007-05-16 2011-03-30 1.14% 0.30% -6.11%
38 Easy One Financial Group Limited 2007-07-18 2009-07-22 0.00% 0.00% 4.97%
39 Hidili Industry International Development Limited 2007-09-10 2012-03-20 -74.25% -26.05% -24.82%
40 SOHO CHINA LIMITED 2008-03-09 2012-03-14 27.24% 6.19% 4.57%
41 GALAXY ENTERTAINMENT GROUP LIMITED 2008-04-18 2012-03-15 269.80% 39.76% 39.72%
42 WAI YUEN TONG MEDICINE HOLDINGS LIMITED 2008-07-15 2009-07-22 -51.56% -50.91% -48.54%
43 REAL GOLD MINING LIMITED 2009-02-10 2009-03-11 -22.24%
44 APAC Resources Limited 2009-04-16 2011-08-23 -14.29% -6.34% -17.97%
45 China Agri-Products Exchange Limited 2009-04-27 2010-04-16 -43.61% -44.63% -63.74%
46 Ausnutria Dairy Corporation Ltd 2009-09-24 2013-12-05 -70.70% -39.17% -39.98%
47 ASIAN CITRUS HOLDINGS LIMITED 2009-11-23 2012-09-21 -76.35% -40.03% -40.41%
48 UNITED COMPANY RUSAL PLC 2010-04-11 2012-03-18 -40.40% -23.55% -24.29%
49 CHINA OVERSEAS GRAND OCEANS GROUP LIMITED 2010-04-12 2012-02-28 157.07% 65.20% 62.76%
50 Mongolian Mining Corporation 2010-09-28 2012-03-06 -3.54% -2.55% 3.66%
51 Newtree Group Holdings Limited 2010-12-31 2012-06-28 -13.72% -9.63% 2.71%
52 Lee Kee Holdings Limited 2011-03-17 2012-03-23 -47.28% -46.67% -44.32%
53 ELEC & ELTEK INTERNATIONAL COMPANY LIMITED 2011-06-30 2012-02-23 -28.95% -41.89% -37.60%
54 Amax International Holdings Limited 2011-07-03 2012-06-29 -14.61% -16.88% -19.95%
Average 7.73% -6.11%


Sign up for our free newsletter

Recommend Webb-site to a friend

Copyright & disclaimer, Privacy policy

Back to top